createdAt,value
2023-03-08T00:01:13.994Z,4.47
2023-03-08T00:02:47.255Z,4.43
2023-03-08T00:04:20.704Z,4.43
2023-03-08T00:05:53.870Z,4.46
2023-03-08T00:07:26.964Z,4.48
2023-03-08T00:09:02.314Z,4.51
2023-03-08T00:10:37.041Z,4.52
2023-03-08T00:12:10.760Z,4.58
2023-03-08T00:13:44.038Z,4.57
2023-03-08T00:15:17.685Z,4.57
2023-03-08T00:16:50.969Z,4.54
2023-03-08T00:18:24.094Z,4.50
2023-03-08T00:19:57.399Z,4.43
2023-03-08T00:21:30.681Z,4.38
2023-03-08T00:23:04.094Z,4.29
2023-03-08T00:24:37.214Z,4.18
2023-03-08T00:26:12.471Z,4.12
2023-03-08T00:27:44.712Z,4.05
2023-03-08T00:29:18.272Z,4.08
2023-03-08T00:30:56.446Z,4.02
2023-03-08T00:32:30.229Z,3.99
2023-03-08T00:34:03.592Z,4.00
2023-03-08T00:35:36.903Z,4.03
2023-03-08T00:37:10.033Z,3.99
2023-03-08T00:38:45.815Z,3.99
2023-03-08T00:40:20.878Z,4.03
2023-03-08T00:41:54.590Z,4.04
2023-03-08T00:43:28.677Z,4.02
2023-03-08T00:45:01.996Z,3.99
2023-03-08T00:46:36.669Z,3.99
2023-03-08T00:48:10.275Z,4.03
2023-03-08T00:49:42.848Z,4.05
2023-03-08T00:51:17.524Z,4.05
2023-03-08T00:52:51.137Z,4.02
2023-03-08T00:54:24.718Z,4.01
2023-03-08T00:55:59.669Z,4.00
2023-03-08T00:57:36.615Z,3.97
2023-03-08T00:59:09.906Z,3.99
2023-03-08T01:00:42.181Z,3.99
2023-03-08T01:02:15.363Z,3.95
2023-03-08T01:03:48.632Z,3.91
2023-03-08T01:05:22.241Z,3.80
2023-03-08T01:06:55.704Z,3.66
2023-03-08T01:08:28.001Z,3.59
2023-03-08T01:10:01.424Z,3.56
2023-03-08T01:11:35.803Z,3.58
2023-03-08T01:13:10.414Z,3.53
2023-03-08T01:14:43.780Z,3.52
2023-03-08T01:16:19.491Z,3.47
2023-03-08T01:17:52.780Z,3.49
2023-03-08T01:19:26.005Z,3.52
2023-03-08T01:20:59.661Z,3.51
2023-03-08T01:22:33.376Z,3.53
2023-03-08T01:24:07.876Z,3.58
2023-03-08T01:25:41.313Z,3.57
2023-03-08T01:27:14.577Z,3.53
2023-03-08T01:28:51.424Z,3.50
2023-03-08T01:30:23.739Z,3.49
2023-03-08T01:31:57.021Z,3.51
2023-03-08T01:33:30.328Z,3.52
2023-03-08T01:35:04.655Z,3.50
2023-03-08T01:36:38.034Z,3.51
2023-03-08T01:38:10.422Z,3.46
2023-03-08T01:39:43.924Z,3.45
2023-03-08T01:41:19.654Z,3.46
2023-03-08T01:42:52.944Z,3.42
2023-03-08T01:44:27.817Z,3.44
2023-03-08T01:46:07.836Z,3.47
2023-03-08T01:47:41.335Z,3.43
2023-03-08T01:49:33.184Z,3.34
2023-03-08T01:51:11.251Z,3.26
2023-03-08T01:52:47.869Z,3.22
2023-03-08T01:54:23.841Z,3.18
2023-03-08T01:55:58.188Z,3.09
2023-03-08T01:57:34.282Z,3.05
2023-03-08T01:59:07.278Z,3.04
2023-03-08T02:00:41.920Z,3.01
2023-03-08T02:02:14.468Z,2.98
2023-03-08T02:03:48.375Z,2.83
2023-03-08T02:05:25.135Z,2.85
2023-03-08T02:07:03.587Z,2.83
2023-03-08T02:08:36.707Z,2.83
2023-03-08T02:10:11.340Z,2.88
2023-03-08T02:11:44.611Z,2.90
2023-03-08T02:13:20.808Z,2.92
2023-03-08T02:14:56.317Z,2.90
2023-03-08T02:16:31.200Z,2.91
2023-03-08T02:18:05.608Z,2.94
2023-03-08T02:19:45.440Z,2.94
2023-03-08T02:21:18.932Z,2.93
2023-03-08T02:22:53.320Z,2.90
2023-03-08T02:24:29.263Z,2.85
2023-03-08T02:26:05.334Z,2.85
2023-03-08T02:27:38.909Z,2.88
2023-03-08T02:29:12.121Z,2.89
2023-03-08T02:32:52.902Z,2.83
2023-03-08T02:34:28.330Z,2.83
2023-03-08T02:36:02.660Z,2.78
2023-03-08T02:37:36.616Z,2.84
2023-03-08T02:39:11.438Z,2.80
2023-03-08T02:40:44.920Z,2.62
2023-03-08T02:42:18.148Z,2.51
2023-03-08T02:43:51.260Z,2.43
2023-03-08T02:45:24.940Z,2.41
2023-03-08T02:46:58.098Z,2.36
2023-03-08T02:48:31.318Z,2.38
2023-03-08T02:50:04.192Z,2.35
2023-03-08T02:51:37.493Z,2.40
2023-03-08T02:53:10.813Z,2.45
2023-03-08T02:54:45.366Z,2.54
2023-03-08T02:56:18.526Z,2.55
2023-03-08T02:57:52.204Z,2.55
2023-03-08T02:59:27.239Z,2.57
2023-03-08T03:01:02.038Z,2.63
2023-03-08T03:02:34.892Z,2.66
2023-03-08T03:04:08.458Z,2.64
2023-03-08T03:05:43.291Z,2.56
2023-03-08T03:07:19.739Z,2.50
2023-03-08T03:08:54.294Z,2.43
2023-03-08T03:10:30.230Z,2.35
2023-03-08T03:12:03.640Z,2.29
2023-03-08T03:13:42.048Z,2.31
2023-03-08T03:15:17.529Z,2.31
2023-03-08T03:16:53.387Z,2.25
2023-03-08T03:18:27.433Z,2.20
2023-03-08T03:20:00.087Z,2.13
2023-03-08T03:21:33.339Z,2.16
2023-03-08T03:23:06.773Z,2.14
2023-03-08T03:24:52.273Z,2.20
2023-03-08T03:26:27.800Z,2.26
2023-03-08T03:28:02.340Z,2.23
2023-03-08T03:29:36.165Z,2.20
2023-03-08T03:31:23.604Z,2.19
2023-03-08T03:32:56.874Z,2.22
2023-03-08T03:34:34.240Z,2.25
2023-03-08T03:36:09.832Z,2.27
2023-03-08T03:37:43.019Z,2.30
2023-03-08T03:39:16.542Z,2.30
2023-03-08T03:40:50.652Z,2.30
2023-03-08T03:42:26.119Z,2.33
2023-03-08T03:44:11.475Z,2.27
2023-03-08T03:45:44.906Z,2.24
2023-03-08T03:47:18.065Z,2.21
2023-03-08T03:48:51.996Z,2.16
2023-03-08T03:50:27.195Z,2.13
2023-03-08T03:52:14.918Z,2.14
2023-03-08T03:53:55.712Z,2.18
2023-03-08T03:55:29.472Z,2.26
2023-03-08T03:57:02.938Z,2.28
2023-03-08T03:58:42.052Z,2.35
2023-03-08T04:00:17.225Z,2.40
2023-03-08T04:01:56.902Z,2.48
2023-03-08T04:03:41.222Z,2.58
2023-03-08T04:05:14.066Z,2.60
2023-03-08T04:06:48.268Z,2.64
2023-03-08T04:08:24.146Z,2.67
2023-03-08T04:09:57.936Z,2.70
2023-03-08T04:11:34.949Z,2.71
2023-03-08T04:13:08.809Z,2.76
2023-03-08T04:14:44.027Z,2.81
2023-03-08T04:16:23.892Z,2.86
2023-03-08T04:17:57.647Z,2.86
2023-03-08T04:19:33.445Z,2.83
2023-03-08T04:21:07.763Z,2.80
2023-03-08T04:22:41.692Z,2.76
2023-03-08T04:24:22.913Z,2.76
2023-03-08T04:26:00.314Z,2.79
2023-03-08T04:27:34.490Z,2.79
2023-03-08T04:29:08.085Z,2.75
2023-03-08T04:30:45.925Z,2.69
2023-03-08T04:32:20.806Z,2.69
2023-03-08T04:33:58.916Z,2.65
2023-03-08T04:35:31.822Z,2.57
2023-03-08T04:37:05.034Z,2.53
2023-03-08T04:38:39.750Z,2.44
2023-03-08T04:40:14.300Z,2.49
2023-03-08T04:41:54.919Z,2.49
2023-03-08T04:43:32.940Z,2.55
2023-03-08T04:45:08.037Z,2.57
2023-03-08T04:46:42.921Z,2.53
2023-03-08T04:48:20.960Z,2.46
2023-03-08T04:49:54.374Z,2.43
2023-03-08T04:51:28.494Z,2.37
2023-03-08T04:53:04.654Z,2.34
2023-03-08T04:54:38.668Z,2.30
2023-03-08T04:56:21.123Z,2.30
2023-03-08T04:57:55.432Z,2.33
2023-03-08T04:59:29.307Z,2.30
2023-03-08T05:01:11.373Z,2.23
2023-03-08T05:02:47.548Z,2.37
2023-03-08T05:04:24.761Z,2.37
2023-03-08T05:05:58.806Z,2.38
2023-03-08T05:07:32.091Z,2.40
2023-03-08T05:09:07.753Z,2.40
2023-03-08T05:10:49.101Z,2.42
2023-03-08T05:12:23.236Z,2.45
2023-03-08T05:14:00.743Z,2.48
2023-03-08T05:15:35.063Z,2.56
2023-03-08T05:17:09.801Z,2.56
2023-03-08T05:18:44.535Z,2.60
2023-03-08T05:20:18.388Z,2.58
2023-03-08T05:21:52.728Z,2.57
2023-03-08T05:23:28.666Z,2.57
2023-03-08T05:25:02.284Z,2.58
2023-03-08T05:26:35.489Z,2.58
2023-03-08T05:28:09.060Z,2.56
2023-03-08T05:29:43.261Z,2.57
2023-03-08T05:31:18.278Z,2.62
2023-03-08T05:32:50.920Z,2.65
2023-03-08T05:34:25.794Z,2.72
2023-03-08T05:35:58.623Z,2.83
2023-03-08T05:37:32.257Z,3.07
2023-03-08T05:39:08.739Z,3.46
2023-03-08T05:41:01.965Z,4.00
2023-03-08T05:42:36.010Z,4.50
2023-03-08T05:44:09.751Z,4.93
2023-03-08T05:45:44.708Z,5.33
2023-03-08T05:47:17.519Z,5.64
2023-03-08T05:48:51.069Z,6.01
2023-03-08T05:50:26.649Z,6.36
2023-03-08T05:52:00.201Z,6.75
2023-03-08T05:53:35.268Z,7.12
2023-03-08T05:55:10.851Z,7.39
2023-03-08T05:56:44.936Z,7.67
2023-03-08T05:58:28.123Z,7.79
2023-03-08T06:00:01.766Z,8.01
2023-03-08T06:01:37.696Z,8.15
2023-03-08T06:03:21.617Z,8.42
2023-03-08T06:04:55.488Z,8.60
2023-03-08T06:06:34.080Z,8.90
2023-03-08T06:08:10.185Z,9.10
2023-03-08T06:09:43.545Z,9.18
2023-03-08T06:11:21.592Z,9.51
2023-03-08T06:12:56.161Z,9.90
2023-03-08T06:14:31.003Z,10.27
2023-03-08T06:16:06.018Z,10.31
2023-03-08T06:17:40.200Z,10.36
2023-03-08T06:19:13.871Z,10.19
2023-03-08T06:20:55.776Z,10.53
2023-03-08T06:22:30.347Z,10.61
2023-03-08T06:24:03.703Z,10.80
2023-03-08T06:25:38.221Z,10.95
2023-03-08T06:27:14.512Z,11.27
2023-03-08T06:28:49.198Z,11.52
2023-03-08T06:30:22.889Z,11.62
2023-03-08T06:32:00.478Z,11.65
2023-03-08T06:33:35.874Z,11.62
2023-03-08T06:35:11.056Z,11.84
2023-03-08T06:36:52.028Z,12.07
2023-03-08T06:38:30.500Z,12.27
2023-03-08T06:40:06.006Z,12.52
2023-03-08T06:41:39.734Z,12.82
2023-03-08T06:43:13.393Z,12.91
2023-03-08T06:44:46.886Z,12.69
2023-03-08T06:46:22.262Z,12.59
2023-03-08T06:47:55.426Z,12.52
2023-03-08T06:49:28.946Z,12.53
2023-03-08T06:51:01.630Z,12.26
2023-03-08T06:52:37.884Z,11.69
2023-03-08T06:54:17.469Z,11.56
2023-03-08T06:55:52.436Z,11.62
2023-03-08T06:57:25.963Z,11.66
2023-03-08T06:58:59.132Z,11.68
2023-03-08T07:00:32.640Z,11.73
2023-03-08T07:02:05.838Z,11.87
2023-03-08T07:03:39.763Z,12.17
2023-03-08T07:05:13.024Z,12.48
2023-03-08T07:06:46.469Z,12.80
2023-03-08T07:08:19.689Z,13.03
2023-03-08T07:09:54.438Z,13.21
2023-03-08T07:11:29.674Z,13.44
2023-03-08T07:13:04.252Z,13.63
2023-03-08T07:14:37.599Z,13.81
2023-03-08T07:16:12.960Z,13.96
2023-03-08T07:17:46.644Z,14.14
2023-03-08T07:19:19.798Z,14.10
2023-03-08T07:20:54.101Z,14.20
2023-03-08T07:22:27.562Z,14.21
2023-03-08T07:24:00.681Z,14.43
2023-03-08T07:25:35.480Z,14.56
2023-03-08T07:27:08.740Z,14.61
2023-03-08T07:28:42.084Z,14.76
2023-03-08T07:30:17.639Z,14.65
2023-03-08T07:31:50.890Z,14.96
2023-03-08T07:33:24.202Z,15.36
2023-03-08T07:34:58.243Z,15.60
2023-03-08T07:36:31.880Z,15.64
2023-03-08T07:38:05.188Z,15.85
2023-03-08T07:39:38.462Z,16.11
2023-03-08T07:41:13.518Z,16.35
2023-03-08T07:42:46.754Z,16.52
2023-03-08T07:44:37.348Z,16.81
2023-03-08T07:46:10.615Z,16.88
2023-03-08T07:47:44.091Z,17.02
2023-03-08T07:49:17.380Z,17.07
2023-03-08T07:50:50.589Z,17.27
2023-03-08T07:52:28.605Z,17.47
2023-03-08T07:54:02.209Z,17.50
2023-03-08T07:55:35.618Z,17.62
2023-03-08T07:57:13.653Z,17.90
2023-03-08T07:58:47.220Z,17.91
2023-03-08T08:00:21.819Z,18.12
2023-03-08T08:01:54.925Z,18.35
2023-03-08T08:03:30.526Z,18.49
2023-03-08T08:05:05.000Z,18.15
2023-03-08T08:06:38.534Z,17.61
2023-03-08T08:08:13.984Z,17.35
2023-03-08T08:09:47.190Z,17.66
2023-03-08T08:11:21.093Z,17.98
2023-03-08T08:12:55.861Z,18.21
2023-03-08T08:14:29.085Z,17.94
2023-03-08T08:16:03.971Z,18.04
2023-03-08T08:17:38.328Z,17.69
2023-03-08T08:19:12.568Z,17.90
2023-03-08T08:20:45.678Z,18.25
2023-03-08T08:22:18.961Z,18.37
2023-03-08T08:23:53.448Z,18.41
2023-03-08T08:25:27.035Z,18.07
2023-03-08T08:27:00.665Z,18.15
2023-03-08T08:28:36.221Z,18.48
2023-03-08T08:30:11.321Z,18.92
2023-03-08T08:31:45.078Z,19.24
2023-03-08T08:33:18.297Z,19.40
2023-03-08T08:34:51.473Z,19.76
2023-03-08T08:36:25.261Z,19.74
2023-03-08T08:37:59.316Z,19.98
2023-03-08T08:39:33.138Z,20.17
2023-03-08T08:41:08.707Z,20.43
2023-03-08T08:42:41.919Z,20.47
2023-03-08T08:44:16.939Z,20.27
2023-03-08T08:45:56.163Z,20.06
2023-03-08T08:47:30.276Z,20.22
2023-03-08T08:49:05.441Z,20.60
2023-03-08T08:50:39.437Z,20.87
2023-03-08T08:52:12.612Z,20.92
2023-03-08T08:53:45.829Z,21.05
2023-03-08T08:55:19.010Z,21.25
2023-03-08T08:56:52.977Z,21.53
2023-03-08T08:58:26.849Z,21.63
2023-03-08T09:00:01.552Z,21.75
2023-03-08T09:01:36.953Z,22.04
2023-03-08T09:03:10.754Z,21.98
2023-03-08T09:04:43.985Z,21.72
2023-03-08T09:06:19.928Z,21.59
2023-03-08T09:07:54.722Z,21.34
2023-03-08T09:09:28.205Z,21.50
2023-03-08T09:11:05.024Z,21.56
2023-03-08T09:12:38.284Z,21.57
2023-03-08T09:14:11.441Z,21.56
2023-03-08T09:15:46.332Z,21.76
2023-03-08T09:17:19.415Z,21.86
2023-03-08T09:18:53.193Z,22.10
2023-03-08T09:20:26.269Z,22.04
2023-03-08T09:21:59.849Z,22.11
2023-03-08T09:23:32.907Z,22.09
2023-03-08T09:25:06.612Z,21.84
2023-03-08T09:26:39.918Z,21.74
2023-03-08T09:28:13.857Z,21.53
2023-03-08T09:29:46.924Z,21.28
2023-03-08T09:31:21.594Z,21.18
2023-03-08T09:32:54.780Z,20.86
2023-03-08T09:34:29.382Z,20.35
2023-03-08T09:36:02.829Z,20.13
2023-03-08T09:37:36.090Z,19.95
2023-03-08T09:39:10.366Z,19.73
2023-03-08T09:40:58.199Z,19.59
2023-03-08T09:42:34.937Z,19.64
2023-03-08T09:44:19.630Z,19.54
2023-03-08T09:45:54.488Z,19.26
2023-03-08T09:47:42.559Z,19.29
2023-03-08T09:49:20.084Z,19.33
2023-03-08T09:50:56.154Z,19.22
2023-03-08T09:52:38.516Z,19.32
2023-03-08T09:54:16.658Z,19.37
2023-03-08T09:55:54.057Z,19.34
2023-03-08T09:57:32.037Z,19.27
2023-03-08T09:59:13.423Z,19.35
2023-03-08T10:00:47.487Z,19.38
2023-03-08T10:02:31.452Z,19.47
2023-03-08T10:04:20.389Z,19.40
2023-03-08T10:06:00.450Z,19.33
2023-03-08T10:07:44.578Z,19.37
2023-03-08T10:09:30.053Z,19.42
2023-03-08T10:11:07.560Z,19.52
2023-03-08T10:12:53.444Z,19.59
2023-03-08T10:14:31.511Z,19.67
2023-03-08T10:16:11.831Z,19.62
2023-03-08T10:17:50.381Z,19.71
2023-03-08T10:19:29.702Z,19.63
2023-03-08T10:21:03.619Z,19.65
2023-03-08T10:22:39.312Z,19.83
2023-03-08T10:24:26.666Z,19.90
2023-03-08T10:26:02.898Z,20.10
2023-03-08T10:27:37.167Z,20.13
2023-03-08T10:29:12.817Z,20.06
2023-03-08T10:30:48.049Z,19.96
2023-03-08T10:32:22.017Z,19.84
2023-03-08T10:34:04.633Z,19.65
2023-03-08T10:35:51.244Z,19.61
2023-03-08T10:37:32.139Z,19.64
2023-03-08T10:39:09.781Z,19.70
2023-03-08T10:40:43.137Z,19.83
2023-03-08T10:42:17.785Z,19.87
2023-03-08T10:43:53.839Z,19.86
2023-03-08T10:45:28.639Z,19.77
2023-03-08T10:47:05.376Z,19.67
2023-03-08T10:48:38.788Z,19.73
2023-03-08T10:50:16.502Z,19.81
2023-03-08T10:52:00.652Z,19.86
2023-03-08T10:53:34.477Z,19.97
2023-03-08T10:55:12.993Z,19.96
2023-03-08T10:56:53.807Z,19.99
2023-03-08T10:58:34.966Z,20.10
2023-03-08T11:00:22.829Z,20.08
2023-03-08T11:01:59.210Z,20.23
2023-03-08T11:03:33.036Z,20.34
2023-03-08T11:05:20.162Z,20.43
2023-03-08T11:06:53.383Z,20.44
2023-03-08T11:08:30.971Z,20.33
2023-03-08T11:10:18.008Z,20.28
2023-03-08T11:11:51.430Z,20.23
2023-03-08T11:13:29.667Z,20.22
2023-03-08T11:15:02.855Z,20.28
2023-03-08T11:16:46.844Z,20.50
2023-03-08T11:18:40.864Z,20.49
2023-03-08T11:20:19.337Z,20.58
2023-03-08T11:22:03.619Z,20.75
2023-03-08T11:23:45.206Z,20.81
2023-03-08T11:25:30.743Z,20.87
2023-03-08T11:27:30.386Z,20.93
2023-03-08T11:29:16.893Z,21.00
2023-03-08T11:31:02.499Z,20.76
2023-03-08T11:32:51.163Z,20.59
2023-03-08T11:34:47.450Z,20.51
2023-03-08T11:36:27.062Z,20.43
2023-03-08T11:38:04.655Z,20.36
2023-03-08T11:39:45.161Z,20.16
2023-03-08T11:41:27.046Z,20.20
2023-03-08T11:43:17.053Z,20.25
2023-03-08T11:45:04.417Z,20.39
2023-03-08T11:46:49.418Z,20.43
2023-03-08T11:48:48.000Z,20.42
2023-03-08T11:50:24.504Z,20.37
2023-03-08T11:52:08.662Z,20.29
2023-03-08T11:53:54.934Z,20.23
2023-03-08T11:55:39.578Z,20.16
2023-03-08T11:57:15.027Z,20.18
2023-03-08T11:58:53.416Z,20.13
2023-03-08T12:00:31.804Z,20.14
2023-03-08T12:02:17.596Z,20.21
2023-03-08T12:03:54.438Z,20.32
2023-03-08T12:05:30.914Z,20.32
2023-03-08T12:07:09.973Z,20.17
2023-03-08T12:08:49.463Z,20.18
2023-03-08T12:10:25.477Z,20.19
2023-03-08T12:12:07.230Z,20.20
2023-03-08T12:13:45.396Z,20.27
2023-03-08T12:15:28.034Z,20.24
2023-03-08T12:17:08.592Z,20.23
2023-03-08T12:18:48.224Z,20.25
2023-03-08T12:20:22.417Z,20.18
2023-03-08T12:22:05.546Z,20.22
2023-03-08T12:23:47.803Z,20.16
2023-03-08T12:25:26.286Z,20.22
2023-03-08T12:27:06.526Z,20.23
2023-03-08T12:28:46.693Z,20.35
2023-03-08T12:30:29.319Z,20.42
2023-03-08T12:32:04.825Z,20.35
2023-03-08T12:33:38.562Z,20.36
2023-03-08T12:35:27.966Z,20.34
2023-03-08T12:37:01.151Z,20.41
2023-03-08T12:38:37.545Z,20.34
2023-03-08T12:40:30.661Z,20.27
2023-03-08T12:42:18.069Z,20.33
2023-03-08T12:44:00.619Z,20.38
2023-03-08T12:45:34.013Z,20.41
2023-03-08T12:47:22.105Z,20.41
2023-03-08T12:48:56.115Z,20.41
2023-03-08T12:50:29.921Z,20.32
2023-03-08T12:52:06.474Z,20.26
2023-03-08T12:53:42.749Z,20.24
2023-03-08T12:55:22.531Z,20.26
2023-03-08T12:56:56.719Z,20.23
2023-03-08T12:58:33.132Z,20.29
2023-03-08T13:00:24.827Z,20.37
2023-03-08T13:02:03.484Z,20.54
2023-03-08T13:03:42.078Z,20.65
2023-03-08T13:05:29.316Z,20.72
2023-03-08T13:07:28.130Z,20.70
2023-03-08T13:09:09.230Z,20.64
2023-03-08T13:10:57.159Z,20.62
2023-03-08T13:12:39.588Z,20.63
2023-03-08T13:14:39.733Z,20.64
2023-03-08T13:16:31.380Z,20.66
2023-03-08T13:18:14.105Z,20.79
2023-03-08T13:19:49.991Z,20.82
2023-03-08T13:21:35.242Z,20.88
2023-03-08T13:23:18.179Z,20.82
2023-03-08T13:24:56.764Z,20.77
2023-03-08T13:26:54.484Z,20.74
2023-03-08T13:28:44.526Z,20.81
2023-03-08T13:30:26.301Z,20.85
2023-03-08T13:32:06.262Z,20.89
2023-03-08T13:33:43.345Z,20.97
2023-03-08T13:35:16.758Z,21.00
2023-03-08T13:36:50.068Z,21.02
2023-03-08T13:38:24.822Z,21.02
2023-03-08T13:39:59.464Z,20.99
2023-03-08T13:41:34.703Z,20.88
2023-03-08T13:43:09.847Z,20.86
2023-03-08T13:44:43.135Z,20.83
2023-03-08T13:46:23.888Z,20.77
2023-03-08T13:47:59.572Z,20.70
2023-03-08T13:49:36.424Z,20.75
2023-03-08T13:51:09.617Z,20.86
2023-03-08T13:52:43.175Z,20.96
2023-03-08T13:54:23.455Z,21.05
2023-03-08T13:55:58.866Z,21.10
2023-03-08T13:57:33.728Z,21.14
2023-03-08T13:59:07.261Z,21.20
2023-03-08T14:00:41.022Z,21.23
2023-03-08T14:02:25.594Z,21.31
2023-03-08T14:04:01.271Z,21.27
2023-03-08T14:05:41.652Z,21.22
2023-03-08T14:07:22.710Z,21.09
2023-03-08T14:08:59.683Z,20.94
2023-03-08T14:10:37.821Z,20.92
2023-03-08T14:12:18.678Z,20.89
2023-03-08T14:13:54.282Z,20.84
2023-03-08T14:15:27.547Z,20.82
2023-03-08T14:17:01.558Z,20.76
2023-03-08T14:18:38.861Z,20.72
2023-03-08T14:20:20.775Z,20.66
2023-03-08T14:21:57.141Z,20.65
2023-03-08T14:23:30.449Z,20.67
2023-03-08T14:25:05.303Z,20.66
2023-03-08T14:26:40.567Z,20.69
2023-03-08T14:28:35.134Z,20.76
2023-03-08T14:30:15.931Z,20.83
2023-03-08T14:31:58.862Z,20.86
2023-03-08T14:33:41.957Z,20.85
2023-03-08T14:35:24.587Z,20.80
2023-03-08T14:37:00.406Z,20.83
2023-03-08T14:38:35.641Z,20.84
2023-03-08T14:40:26.972Z,20.85
2023-03-08T14:42:10.444Z,20.88
2023-03-08T14:43:49.507Z,20.89
2023-03-08T14:45:26.571Z,20.87
2023-03-08T14:47:09.790Z,20.79
2023-03-08T14:48:43.017Z,20.62
2023-03-08T14:50:26.378Z,20.50
2023-03-08T14:51:59.538Z,20.46
2023-03-08T14:53:35.318Z,20.39
2023-03-08T14:55:23.488Z,20.33
2023-03-08T14:56:56.669Z,20.28
2023-03-08T14:58:32.467Z,20.21
2023-03-08T15:00:14.765Z,20.16
2023-03-08T15:01:47.910Z,20.08
2023-03-08T15:03:21.011Z,20.07
2023-03-08T15:04:54.167Z,20.08
2023-03-08T15:06:32.991Z,20.04
2023-03-08T15:08:08.251Z,20.06
2023-03-08T15:09:42.075Z,20.02
2023-03-08T15:11:15.792Z,19.98
2023-03-08T15:12:48.895Z,20.02
2023-03-08T15:14:22.149Z,20.00
2023-03-08T15:15:55.433Z,20.00
2023-03-08T15:17:28.563Z,19.87
2023-03-08T15:19:01.648Z,19.86
2023-03-08T15:20:35.550Z,19.85
2023-03-08T15:22:14.129Z,19.86
2023-03-08T15:23:47.922Z,19.81
2023-03-08T15:25:25.096Z,19.77
2023-03-08T15:26:58.263Z,19.79
2023-03-08T15:28:31.403Z,19.76
2023-03-08T15:30:05.016Z,19.74
2023-03-08T15:31:38.166Z,19.65
2023-03-08T15:33:11.490Z,19.61
2023-03-08T15:34:44.581Z,19.58
2023-03-08T15:36:19.907Z,19.57
2023-03-08T15:37:54.468Z,19.50
2023-03-08T15:39:27.814Z,19.48
2023-03-08T15:41:00.917Z,19.46
2023-03-08T15:42:34.120Z,19.44
2023-03-08T15:44:07.828Z,19.40
2023-03-08T15:45:41.383Z,19.38
2023-03-08T15:47:14.511Z,19.36
2023-03-08T15:48:47.712Z,19.43
2023-03-08T15:50:21.146Z,19.46
2023-03-08T15:51:54.282Z,19.45
2023-03-08T15:53:35.560Z,19.38
2023-03-08T15:55:12.303Z,19.26
2023-03-08T15:56:45.570Z,19.18
2023-03-08T15:58:18.739Z,19.09
2023-03-08T15:59:51.997Z,18.98
2023-03-08T16:01:27.669Z,18.83
2023-03-08T16:03:00.870Z,18.76
2023-03-08T16:04:34.186Z,18.69
2023-03-08T16:06:10.727Z,18.65
2023-03-08T16:07:44.309Z,18.58
2023-03-08T16:09:18.854Z,18.48
2023-03-08T16:10:52.480Z,18.38
2023-03-08T16:12:25.870Z,18.28
2023-03-08T16:13:59.100Z,18.21
2023-03-08T16:15:32.321Z,18.13
2023-03-08T16:17:06.128Z,18.01
2023-03-08T16:18:40.479Z,17.94
2023-03-08T16:20:15.212Z,17.84
2023-03-08T16:21:48.651Z,17.78
2023-03-08T16:23:21.849Z,17.72
2023-03-08T16:24:56.513Z,17.69
2023-03-08T16:26:30.243Z,17.64
2023-03-08T16:28:03.659Z,17.58
2023-03-08T16:29:59.746Z,17.53
2023-03-08T16:31:34.069Z,17.50
2023-03-08T16:33:07.390Z,17.46
2023-03-08T16:34:40.573Z,17.44
2023-03-08T16:36:15.853Z,17.40
2023-03-08T16:37:49.324Z,17.38
2023-03-08T16:39:23.200Z,17.33
2023-03-08T16:41:11.484Z,17.35
2023-03-08T16:42:48.275Z,17.32
2023-03-08T16:44:26.475Z,17.29
2023-03-08T16:46:01.619Z,17.27
2023-03-08T16:47:35.040Z,17.23
2023-03-08T16:49:08.302Z,17.20
2023-03-08T16:50:42.117Z,17.16
2023-03-08T16:52:15.946Z,17.14
2023-03-08T16:53:49.606Z,17.10
2023-03-08T16:55:22.890Z,17.04
2023-03-08T16:56:58.762Z,16.97
2023-03-08T16:58:34.338Z,16.89
2023-03-08T17:00:12.158Z,16.81
2023-03-08T17:01:47.470Z,16.71
2023-03-08T17:03:20.938Z,16.69
2023-03-08T17:04:54.146Z,16.66
2023-03-08T17:06:30.053Z,16.63
2023-03-08T17:08:03.184Z,16.61
2023-03-08T17:09:36.693Z,16.58
2023-03-08T17:11:16.091Z,16.51
2023-03-08T17:12:50.589Z,16.46
2023-03-08T17:14:23.743Z,16.43
2023-03-08T17:15:57.349Z,16.40
2023-03-08T17:17:30.526Z,16.36
2023-03-08T17:19:05.536Z,16.32
2023-03-08T17:20:41.399Z,16.27
2023-03-08T17:22:14.802Z,16.18
2023-03-08T17:23:48.575Z,16.06
2023-03-08T17:25:21.734Z,16.02
2023-03-08T17:26:55.044Z,15.94
2023-03-08T17:28:29.651Z,15.84
2023-03-08T17:30:03.865Z,15.74
2023-03-08T17:31:38.100Z,15.61
2023-03-08T17:33:13.457Z,15.53
2023-03-08T17:34:46.845Z,15.45
2023-03-08T17:36:20.666Z,15.38
2023-03-08T17:37:53.971Z,15.34
2023-03-08T17:39:27.239Z,15.28
2023-03-08T17:41:01.091Z,15.20
2023-03-08T17:42:36.667Z,15.18
2023-03-08T17:44:11.518Z,15.10
2023-03-08T17:45:45.767Z,15.06
2023-03-08T17:47:19.209Z,14.99
2023-03-08T17:48:53.515Z,14.86
2023-03-08T17:50:27.168Z,14.74
2023-03-08T17:52:00.446Z,14.70
2023-03-08T17:53:34.814Z,14.60
2023-03-08T17:55:08.791Z,14.54
2023-03-08T17:56:42.054Z,14.47
2023-03-08T17:58:15.284Z,14.44
2023-03-08T17:59:50.206Z,14.40
2023-03-08T18:01:25.258Z,14.38
2023-03-08T18:02:59.634Z,14.33
2023-03-08T18:04:32.861Z,14.29
2023-03-08T18:06:06.762Z,14.22
2023-03-08T18:07:41.875Z,14.20
2023-03-08T18:09:17.042Z,14.12
2023-03-08T18:10:50.170Z,14.05
2023-03-08T18:12:23.366Z,14.00
2023-03-08T18:13:57.342Z,13.93
2023-03-08T18:15:31.831Z,13.84
2023-03-08T18:17:05.626Z,13.79
2023-03-08T18:18:39.009Z,13.74
2023-03-08T18:20:13.244Z,13.68
2023-03-08T18:21:53.287Z,13.60
2023-03-08T18:23:26.603Z,13.52
2023-03-08T18:25:01.520Z,13.51
2023-03-08T18:26:34.994Z,13.51
2023-03-08T18:28:08.337Z,13.44
2023-03-08T18:29:41.719Z,13.28
2023-03-08T18:31:18.321Z,13.23
2023-03-08T18:32:51.660Z,13.15
2023-03-08T18:34:24.884Z,13.10
2023-03-08T18:35:58.854Z,12.97
2023-03-08T18:37:32.405Z,12.93
2023-03-08T18:39:07.280Z,12.88
2023-03-08T18:40:40.588Z,12.80
2023-03-08T18:42:14.757Z,12.78
2023-03-08T18:43:48.025Z,12.73
2023-03-08T18:45:21.170Z,12.67
2023-03-08T18:46:56.248Z,12.63
2023-03-08T18:48:29.519Z,12.63
2023-03-08T18:50:03.570Z,12.59
2023-03-08T18:51:39.099Z,12.55
2023-03-08T18:53:13.129Z,12.52
2023-03-08T18:54:48.496Z,12.50
2023-03-08T18:56:22.644Z,12.48
2023-03-08T18:57:55.853Z,12.33
2023-03-08T18:59:29.233Z,12.15
2023-03-08T19:01:03.226Z,11.95
2023-03-08T19:02:38.298Z,11.69
2023-03-08T19:04:11.631Z,11.56
2023-03-08T19:05:44.802Z,11.49
2023-03-08T19:07:18.000Z,11.50
2023-03-08T19:08:51.415Z,11.51
2023-03-08T19:10:24.531Z,11.51
2023-03-08T19:11:57.890Z,11.48
2023-03-08T19:13:33.438Z,11.42
2023-03-08T19:15:08.245Z,11.47
2023-03-08T19:16:41.831Z,11.53
2023-03-08T19:18:16.523Z,11.59
2023-03-08T19:19:49.677Z,11.63
2023-03-08T19:21:26.283Z,11.68
2023-03-08T19:22:59.403Z,11.70
2023-03-08T19:24:32.679Z,11.82
2023-03-08T19:26:30.375Z,11.84
2023-03-08T19:28:04.104Z,11.86
2023-03-08T19:29:37.327Z,11.87
2023-03-08T19:31:17.452Z,11.88
2023-03-08T19:32:50.715Z,11.82
2023-03-08T19:34:27.260Z,11.86
2023-03-08T19:36:00.548Z,11.88
2023-03-08T19:37:33.712Z,11.84
2023-03-08T19:39:11.187Z,11.70
2023-03-08T19:40:45.320Z,11.65
2023-03-08T19:42:19.111Z,11.51
2023-03-08T19:43:52.358Z,11.50
2023-03-08T19:45:25.724Z,11.54
2023-03-08T19:47:00.444Z,11.58
2023-03-08T19:48:33.594Z,11.59
2023-03-08T19:50:09.273Z,11.57
2023-03-08T19:51:42.888Z,11.57
2023-03-08T19:53:16.111Z,11.55
2023-03-08T19:54:49.256Z,11.61
2023-03-08T19:56:21.545Z,11.59
2023-03-08T19:57:54.975Z,11.60
2023-03-08T19:59:28.355Z,11.56
2023-03-08T20:01:05.287Z,11.52
2023-03-08T20:02:40.628Z,11.51
2023-03-08T20:04:14.338Z,11.54
2023-03-08T20:05:49.240Z,11.50
2023-03-08T20:07:22.583Z,11.45
2023-03-08T20:08:57.021Z,11.48
2023-03-08T20:10:30.495Z,11.47
2023-03-08T20:12:03.879Z,11.46
2023-03-08T20:13:37.047Z,11.50
2023-03-08T20:15:10.571Z,11.52
2023-03-08T20:16:44.046Z,11.56
2023-03-08T20:18:17.185Z,11.58
2023-03-08T20:19:50.385Z,11.63
2023-03-08T20:21:28.846Z,11.66
2023-03-08T20:23:02.194Z,11.65
2023-03-08T20:24:35.529Z,11.62
2023-03-08T20:26:09.039Z,11.59
2023-03-08T20:27:43.636Z,11.58
2023-03-08T20:29:17.732Z,11.52
2023-03-08T20:30:51.303Z,11.40
2023-03-08T20:32:24.549Z,11.35
2023-03-08T20:33:58.032Z,11.33
2023-03-08T20:35:31.262Z,11.33
2023-03-08T20:37:05.982Z,11.33
2023-03-08T20:38:39.490Z,11.35
2023-03-08T20:40:13.868Z,11.38
2023-03-08T20:41:47.198Z,11.39
2023-03-08T20:43:20.420Z,11.36
2023-03-08T20:44:53.756Z,11.39
2023-03-08T20:46:29.635Z,11.40
2023-03-08T20:48:03.632Z,11.33
2023-03-08T20:49:37.651Z,11.31
2023-03-08T20:51:13.824Z,11.31
2023-03-08T20:52:48.548Z,11.32